createdAt,value
2023-02-19T00:01:32.784Z,101919.41
2023-02-19T00:04:01.881Z,101914.06
2023-02-19T00:06:30.581Z,101910.56
2023-02-19T00:08:57.067Z,101920.47
2023-02-19T00:11:26.382Z,101921.25
2023-02-19T00:13:55.381Z,101922.09
2023-02-19T00:16:42.209Z,101923.13
2023-02-19T00:19:13.609Z,101922.31
2023-02-19T00:21:40.121Z,101919.88
2023-02-19T00:24:08.240Z,101926.84
2023-02-19T00:26:35.255Z,101923.34
2023-02-19T00:29:02.196Z,101923.34
2023-02-19T00:31:34.151Z,101932.41
2023-02-19T00:34:04.123Z,101935.09
2023-02-19T00:36:32.155Z,101931.88
2023-02-19T00:38:58.663Z,101929.19
2023-02-19T00:41:25.532Z,101932.66
2023-02-19T00:43:56.073Z,101935.34
2023-02-19T00:46:28.861Z,101932.66
2023-02-19T00:48:56.387Z,101934.53
2023-02-19T00:51:25.194Z,101934.75
2023-02-19T00:53:51.710Z,101935.59
2023-02-19T00:56:18.287Z,101934.75
2023-02-19T00:58:45.039Z,101937.69
2023-02-19T01:01:12.605Z,101932.31
2023-02-19T01:03:39.853Z,101937.88
2023-02-19T01:06:07.867Z,101942.44
2023-02-19T01:08:35.114Z,101950.47
2023-02-19T01:11:02.748Z,101943.47
2023-02-19T01:13:30.052Z,101957.66
2023-02-19T01:16:08.987Z,101959.53
2023-02-19T01:18:35.970Z,101965.69
2023-02-19T01:21:07.237Z,101955.22
2023-02-19T01:23:34.198Z,101965.91
2023-02-19T01:26:03.274Z,101973.16
2023-02-19T01:28:29.794Z,101965.31
2023-02-19T01:30:56.291Z,101968.25
2023-02-19T01:33:22.767Z,101970.91
2023-02-19T01:35:49.169Z,101966.03
2023-02-19T01:38:15.620Z,101969.75
2023-02-19T01:40:41.974Z,101969.97
2023-02-19T01:43:15.875Z,101969.41
2023-02-19T01:45:46.325Z,101973.91
2023-02-19T01:48:36.113Z,101971.47
2023-02-19T01:51:08.703Z,101971.72
2023-02-19T01:53:39.530Z,101972.97
2023-02-19T01:56:07.780Z,101976.69
2023-02-19T01:58:36.523Z,101970.78
2023-02-19T02:01:05.894Z,101976.34
2023-02-19T02:03:33.311Z,101978.22
2023-02-19T02:06:05.262Z,101971.44
2023-02-19T02:08:51.852Z,101973.31
2023-02-19T02:11:19.730Z,101976.22
2023-02-19T02:13:46.748Z,101971.91
2023-02-19T02:16:28.779Z,101974.00
2023-02-19T02:19:13.954Z,101977.72
2023-02-19T02:21:59.225Z,101976.09
2023-02-19T02:24:43.785Z,101975.28
2023-02-19T02:27:39.193Z,101984.09
2023-02-19T02:30:30.224Z,101979.00
2023-02-19T02:33:02.551Z,101983.50
2023-02-19T02:35:35.295Z,101980.84
2023-02-19T02:38:07.660Z,101983.75
2023-02-19T02:40:34.881Z,101977.81
2023-02-19T02:43:01.274Z,101989.53
2023-02-19T02:45:37.867Z,101990.38
2023-02-19T02:48:34.518Z,101993.06
2023-02-19T02:51:14.229Z,101987.13
2023-02-19T02:54:22.705Z,101995.94
2023-02-19T02:56:50.161Z,101999.88
2023-02-19T02:59:21.994Z,101997.22
2023-02-19T03:02:11.433Z,101998.00
2023-02-19T03:05:14.431Z,102002.56
2023-02-19T03:07:50.119Z,102006.03
2023-02-19T03:10:23.119Z,101997.81
2023-02-19T03:13:11.430Z,102011.38
2023-02-19T03:16:03.258Z,102021.25
2023-02-19T03:18:50.641Z,102015.69
2023-02-19T03:21:21.549Z,102016.72
2023-02-19T03:24:08.008Z,102010.56
2023-02-19T03:26:35.674Z,102017.75
2023-02-19T03:29:22.706Z,102015.09
2023-02-19T03:32:02.233Z,102023.94
2023-02-19T03:34:38.703Z,102019.41
2023-02-19T03:37:25.257Z,102031.38
2023-02-19T03:39:53.782Z,102024.38
2023-02-19T03:42:29.878Z,102021.47
2023-02-19T03:45:02.502Z,102029.03
2023-02-19T03:47:33.626Z,102034.63
2023-02-19T03:50:12.203Z,102044.28
2023-02-19T03:52:47.984Z,102038.94
2023-02-19T03:55:26.573Z,102039.97
2023-02-19T03:58:04.302Z,102042.06
2023-02-19T04:00:37.841Z,102048.44
2023-02-19T04:03:10.042Z,102051.13
2023-02-19T04:05:44.573Z,102061.00
2023-02-19T04:08:17.869Z,102054.81
2023-02-19T04:10:46.276Z,102060.16
2023-02-19T04:13:26.390Z,102065.75
2023-02-19T04:15:56.942Z,102075.00
2023-02-19T04:18:29.488Z,102067.00
2023-02-19T04:20:57.735Z,102077.09
2023-02-19T04:23:28.519Z,102085.09
2023-02-19T04:25:59.280Z,102085.09
2023-02-19T04:28:25.798Z,102085.56
2023-02-19T04:30:52.299Z,102087.38
2023-02-19T04:33:18.749Z,102093.78
2023-02-19T04:35:45.090Z,102090.53
2023-02-19T04:38:12.244Z,102090.28
2023-02-19T04:40:38.587Z,102105.53
2023-02-19T04:43:04.986Z,102109.00
2023-02-19T04:45:31.435Z,102115.97
2023-02-19T04:47:59.047Z,102117.81
2023-02-19T04:50:25.841Z,102123.16
2023-02-19T04:52:52.266Z,102121.31
2023-02-19T04:55:18.653Z,102123.16
2023-02-19T04:57:45.017Z,102129.34
2023-02-19T05:00:12.016Z,102133.66
2023-02-19T05:02:38.399Z,102138.16
2023-02-19T05:05:04.895Z,102143.75
2023-02-19T05:07:31.256Z,102141.66
2023-02-19T05:09:59.579Z,102141.88
2023-02-19T05:12:26.582Z,102143.75
2023-02-19T05:14:52.926Z,102151.75
2023-02-19T05:17:19.326Z,102151.75
2023-02-19T05:19:45.724Z,102147.44
2023-02-19T05:22:12.113Z,102159.78
2023-02-19T05:24:38.516Z,102158.13
2023-02-19T05:27:04.968Z,102155.69
2023-02-19T05:29:32.086Z,102163.13
2023-02-19T05:31:58.575Z,102171.94
2023-02-19T05:34:25.059Z,102168.91
2023-02-19T05:36:51.505Z,102166.81
2023-02-19T05:39:17.920Z,102171.56
2023-02-19T05:41:44.345Z,102171.81
2023-02-19T05:44:11.356Z,102170.97
2023-02-19T05:46:37.864Z,102173.03
2023-02-19T05:49:04.272Z,102171.41
2023-02-19T05:51:30.765Z,102168.72
2023-02-19T05:53:57.576Z,102167.69
2023-02-19T05:56:31.734Z,102177.81
2023-02-19T05:58:59.106Z,102176.19
2023-02-19T06:01:28.319Z,102181.53
2023-02-19T06:03:57.329Z,102186.03
2023-02-19T06:06:25.157Z,102190.56
2023-02-19T06:08:52.057Z,102192.22
2023-02-19T06:11:19.269Z,102191.59
2023-02-19T06:13:46.342Z,102190.78
2023-02-19T06:16:13.220Z,102196.34
2023-02-19T06:18:42.262Z,102201.91
2023-02-19T06:21:11.100Z,102216.31
2023-02-19T06:23:38.592Z,102223.50
2023-02-19T06:26:19.766Z,102227.81
2023-02-19T06:28:47.666Z,102235.00
2023-02-19T06:31:15.056Z,102237.09
2023-02-19T06:33:42.174Z,102238.13
2023-02-19T06:36:16.908Z,102240.41
2023-02-19T06:38:44.127Z,102236.09
2023-02-19T06:41:11.453Z,102237.94
2023-02-19T06:43:38.429Z,102249.66
2023-02-19T06:46:06.176Z,102245.16
2023-02-19T06:48:33.202Z,102247.59
2023-02-19T06:50:59.778Z,102259.53
2023-02-19T06:53:26.700Z,102260.78
2023-02-19T06:56:02.573Z,102259.16
2023-02-19T06:58:29.157Z,102264.50
2023-02-19T07:00:55.657Z,102260.19
2023-02-19T07:03:22.472Z,102272.50
2023-02-19T07:05:49.054Z,102267.38
2023-02-19T07:08:17.239Z,102279.91
2023-02-19T07:10:45.002Z,102283.41
2023-02-19T07:13:11.670Z,102290.59
2023-02-19T07:15:38.405Z,102294.91
2023-02-19T07:18:07.043Z,102294.91
2023-02-19T07:20:33.413Z,102302.09
2023-02-19T07:22:59.799Z,102305.59
2023-02-19T07:25:26.170Z,102311.97
2023-02-19T07:27:52.487Z,102322.44
2023-02-19T07:30:19.043Z,102328.16
2023-02-19T07:32:45.528Z,102319.56
2023-02-19T07:35:11.910Z,102324.91
2023-02-19T07:37:38.422Z,102325.72
2023-02-19T07:40:05.304Z,102331.84
2023-02-19T07:42:31.637Z,102340.47
2023-02-19T07:45:00.545Z,102331.22
2023-02-19T07:47:27.065Z,102325.44
2023-02-19T07:49:53.460Z,102327.31
2023-02-19T07:52:19.847Z,102342.28
2023-02-19T07:54:46.233Z,102343.72
2023-02-19T07:57:12.629Z,102347.22
2023-02-19T07:59:39.051Z,102356.25
2023-02-19T08:02:34.038Z,102360.56
2023-02-19T08:05:00.442Z,102355.81
2023-02-19T08:07:32.229Z,102364.88
2023-02-19T08:10:17.245Z,102358.47
2023-02-19T08:13:01.932Z,102362.78
2023-02-19T08:15:28.387Z,102368.53
2023-02-19T08:17:54.771Z,102371.59
2023-02-19T08:20:21.254Z,102376.09
2023-02-19T08:22:47.642Z,102378.59
2023-02-19T08:25:14.149Z,102390.31
2023-02-19T08:27:40.523Z,102402.03
2023-02-19T08:30:08.784Z,102392.97
2023-02-19T08:32:35.158Z,102413.31
2023-02-19T08:35:01.486Z,102409.44
2023-02-19T08:37:27.807Z,102416.19
2023-02-19T08:39:54.161Z,102408.41
2023-02-19T08:42:20.539Z,102419.09
2023-02-19T08:44:46.857Z,102415.38
2023-02-19T08:47:13.217Z,102420.91
2023-02-19T08:49:39.587Z,102429.47
2023-02-19T08:52:06.010Z,102425.38
2023-02-19T08:54:32.443Z,102418.38
2023-02-19T08:56:58.823Z,102420.03
2023-02-19T08:59:25.314Z,102422.47
2023-02-19T09:01:52.617Z,102423.69
2023-02-19T09:04:18.999Z,102425.34
2023-02-19T09:06:45.443Z,102417.97
2023-02-19T09:09:11.797Z,102418.34
2023-02-19T09:11:40.995Z,102414.31
2023-02-19T09:14:07.656Z,102425.56
2023-02-19T09:16:35.485Z,102431.50
2023-02-19T09:19:02.129Z,102448.16
2023-02-19T09:21:28.579Z,102443.84
2023-02-19T09:23:54.925Z,102437.84
2023-02-19T09:26:21.264Z,102441.72
2023-02-19T09:28:47.678Z,102443.56
2023-02-19T09:31:16.376Z,102459.56
2023-02-19T09:33:44.371Z,102467.53
2023-02-19T09:36:11.580Z,102482.00
2023-02-19T09:38:39.743Z,102489.03
2023-02-19T09:41:09.331Z,102485.78
2023-02-19T09:43:37.394Z,102494.00
2023-02-19T09:46:10.773Z,102499.34
2023-02-19T09:48:37.520Z,102511.06
2023-02-19T09:51:05.050Z,102516.66
2023-02-19T09:53:40.725Z,102517.91
2023-02-19T09:56:08.476Z,102521.66
2023-02-19T09:58:41.023Z,102527.63
2023-02-19T10:01:12.085Z,102530.91
2023-02-19T10:03:41.931Z,102529.69
2023-02-19T10:06:16.489Z,102542.63
2023-02-19T10:08:45.769Z,102552.78
2023-02-19T10:11:13.568Z,102564.97
2023-02-19T10:13:45.597Z,102569.66
2023-02-19T10:16:17.564Z,102576.88
2023-02-19T10:18:45.741Z,102577.50
2023-02-19T10:21:22.150Z,102588.78
2023-02-19T10:23:54.730Z,102592.72
2023-02-19T10:26:22.381Z,102593.09
2023-02-19T10:28:48.765Z,102601.53
2023-02-19T10:31:21.614Z,102609.16
2023-02-19T10:33:51.317Z,102605.06
2023-02-19T10:36:41.011Z,102614.91
2023-02-19T10:39:22.557Z,102614.09
2023-02-19T10:41:50.928Z,102614.31
2023-02-19T10:44:27.424Z,102608.72
2023-02-19T10:46:57.041Z,102617.97
2023-02-19T10:49:35.574Z,102621.47
2023-02-19T10:52:25.284Z,102614.88
2023-02-19T10:54:55.388Z,102619.63
2023-02-19T10:57:33.231Z,102613.25
2023-02-19T11:00:22.633Z,102613.44
2023-02-19T11:02:49.324Z,102614.69
2023-02-19T11:05:19.869Z,102600.50
2023-02-19T11:07:49.990Z,102596.38
2023-02-19T11:10:42.445Z,102604.00
2023-02-19T11:13:16.021Z,102606.69
2023-02-19T11:15:43.188Z,102618.63
2023-02-19T11:18:12.534Z,102621.72
2023-02-19T11:21:00.635Z,102618.63
2023-02-19T11:23:28.826Z,102628.09
2023-02-19T11:25:57.840Z,102625.00
2023-02-19T11:28:32.020Z,102630.13
2023-02-19T11:31:19.578Z,102627.84
2023-02-19T11:33:55.322Z,102621.91
2023-02-19T11:36:31.001Z,102621.09
2023-02-19T11:39:02.119Z,102630.53
2023-02-19T11:41:59.304Z,102637.91
2023-02-19T11:44:49.410Z,102639.16
2023-02-19T11:47:45.321Z,102636.91
2023-02-19T11:50:38.977Z,102642.22
2023-02-19T11:53:24.944Z,102638.75
2023-02-19T11:56:20.823Z,102631.38
2023-02-19T11:59:24.019Z,102623.97
2023-02-19T12:02:25.487Z,102631.13
2023-02-19T12:05:22.794Z,102629.53
2023-02-19T12:08:16.875Z,102632.88
2023-02-19T12:11:07.386Z,102639.25
2023-02-19T12:14:00.234Z,102641.13
2023-02-19T12:16:35.744Z,102650.56
2023-02-19T12:19:11.142Z,102646.47
2023-02-19T12:21:55.769Z,102658.78
2023-02-19T12:24:56.552Z,102653.03
2023-02-19T12:27:25.685Z,102653.25
2023-02-19T12:30:12.520Z,102647.69
2023-02-19T12:33:18.452Z,102649.53
2023-02-19T12:35:50.558Z,102651.19
2023-02-19T12:38:22.628Z,102662.91
2023-02-19T12:41:19.570Z,102669.66
2023-02-19T12:44:01.189Z,102661.47
2023-02-19T12:46:42.240Z,102663.31
2023-02-19T12:49:18.054Z,102667.00
2023-02-19T12:51:58.667Z,102679.53
2023-02-19T12:54:38.103Z,102672.16
2023-02-19T12:57:34.739Z,102686.94
2023-02-19T13:00:23.501Z,102694.94
2023-02-19T13:03:23.538Z,102702.72
2023-02-19T13:05:52.429Z,102693.91
2023-02-19T13:08:48.830Z,102696.78
2023-02-19T13:11:28.044Z,102705.41
2023-02-19T13:14:03.466Z,102702.34
2023-02-19T13:16:33.421Z,102709.53
2023-02-19T13:19:02.010Z,102722.28
2023-02-19T13:21:50.501Z,102728.63
2023-02-19T13:24:33.593Z,102724.69
2023-02-19T13:27:21.302Z,102732.09
2023-02-19T13:29:58.990Z,102743.38
2023-02-19T13:32:51.074Z,102736.38
2023-02-19T13:35:52.221Z,102731.88
2023-02-19T13:38:18.791Z,102733.31
2023-02-19T13:40:56.990Z,102742.34
2023-02-19T13:43:29.326Z,102737.00
2023-02-19T13:46:04.148Z,102744.00
2023-02-19T13:48:43.202Z,102750.16
2023-02-19T13:51:12.479Z,102760.44
2023-02-19T13:53:45.010Z,102762.72
2023-02-19T13:56:29.579Z,102761.69
2023-02-19T13:58:57.176Z,102755.53
2023-02-19T14:01:51.471Z,102755.97
2023-02-19T14:04:39.538Z,102758.81
2023-02-19T14:07:05.887Z,102754.31
2023-02-19T14:09:43.650Z,102765.63
2023-02-19T14:12:15.486Z,102772.81
2023-02-19T14:14:46.310Z,102759.66
2023-02-19T14:17:27.909Z,102760.69
2023-02-19T14:20:09.440Z,102752.28
2023-02-19T14:22:45.139Z,102751.66
2023-02-19T14:25:38.158Z,102754.97
2023-02-19T14:28:10.479Z,102755.53
2023-02-19T14:30:55.184Z,102741.16
2023-02-19T14:33:28.024Z,102740.75
2023-02-19T14:35:58.845Z,102737.28
2023-02-19T14:38:30.203Z,102732.97
2023-02-19T14:40:57.495Z,102729.66
2023-02-19T14:43:26.250Z,102720.41
2023-02-19T14:46:18.060Z,102714.88
2023-02-19T14:48:47.973Z,102713.03
2023-02-19T14:51:23.893Z,102713.88
2023-02-19T14:53:51.825Z,102712.00
2023-02-19T14:56:25.281Z,102712.41
2023-02-19T14:59:13.171Z,102709.31
2023-02-19T15:01:39.972Z,102695.56
2023-02-19T15:04:07.011Z,102695.16
2023-02-19T15:06:36.605Z,102698.03
2023-02-19T15:09:07.080Z,102697.22
2023-02-19T15:11:35.225Z,102692.69
2023-02-19T15:14:05.422Z,102698.66
2023-02-19T15:16:34.174Z,102713.25
2023-02-19T15:19:01.068Z,102722.28
2023-02-19T15:21:30.437Z,102735.81
2023-02-19T15:24:00.175Z,102735.63
2023-02-19T15:26:38.566Z,102740.13
2023-02-19T15:29:16.858Z,102753.47
2023-02-19T15:31:58.372Z,102756.56
2023-02-19T15:34:30.391Z,102764.56
2023-02-19T15:37:03.221Z,102765.78
2023-02-19T15:39:39.940Z,102764.97
2023-02-19T15:42:10.954Z,102767.22
2023-02-19T15:44:51.625Z,102764.31
2023-02-19T15:47:35.650Z,102771.06
2023-02-19T15:50:32.929Z,102764.50
2023-02-19T15:53:09.082Z,102761.81
2023-02-19T15:56:11.696Z,102753.38
2023-02-19T15:58:45.583Z,102750.88
2023-02-19T16:01:34.267Z,102766.91
2023-02-19T16:04:01.222Z,102769.78
2023-02-19T16:06:28.800Z,102775.50
2023-02-19T16:09:01.786Z,102780.00
2023-02-19T16:11:36.052Z,102788.81
2023-02-19T16:14:26.781Z,102798.66
2023-02-19T16:17:18.132Z,102805.84
2023-02-19T16:20:00.650Z,102811.94
2023-02-19T16:22:29.302Z,102809.06
2023-02-19T16:25:02.284Z,102802.91
2023-02-19T16:27:39.711Z,102807.81
2023-02-19T16:30:25.222Z,102810.47
2023-02-19T16:33:19.582Z,102807.16
2023-02-19T16:35:48.010Z,102811.69
2023-02-19T16:38:16.340Z,102809.63
2023-02-19T16:40:48.417Z,102807.75
2023-02-19T16:43:14.824Z,102813.09
2023-02-19T16:45:42.658Z,102808.56
2023-02-19T16:48:10.034Z,102815.50
2023-02-19T16:50:36.830Z,102822.06
2023-02-19T16:53:04.059Z,102828.25
2023-02-19T16:55:34.709Z,102822.03
2023-02-19T16:58:01.250Z,102829.59
2023-02-19T17:00:30.186Z,102828.97
2023-02-19T17:02:59.488Z,102823.25
2023-02-19T17:05:28.831Z,102812.59
2023-02-19T17:07:55.209Z,102801.50
2023-02-19T17:10:26.860Z,102803.53
2023-02-19T17:12:54.833Z,102811.09
2023-02-19T17:15:22.457Z,102808.44
2023-02-19T17:17:48.898Z,102813.56
2023-02-19T17:20:18.210Z,102817.25
2023-02-19T17:22:44.677Z,102820.91
2023-02-19T17:25:11.320Z,102823.16
2023-02-19T17:27:37.755Z,102836.69
2023-02-19T17:30:13.058Z,102836.69
2023-02-19T17:32:39.482Z,102840.16
2023-02-19T17:35:06.333Z,102836.06
2023-02-19T17:37:32.832Z,102840.13
2023-02-19T17:39:59.195Z,102836.00
2023-02-19T17:42:25.796Z,102846.84
2023-02-19T17:44:53.471Z,102854.66
2023-02-19T17:47:22.160Z,102859.78
2023-02-19T17:49:48.542Z,102872.66
2023-02-19T17:52:17.581Z,102868.56
2023-02-19T17:54:44.067Z,102869.56
2023-02-19T17:57:10.487Z,102868.94
2023-02-19T17:59:36.882Z,102869.09
2023-02-19T18:02:03.290Z,102870.75
2023-02-19T18:04:29.747Z,102867.06
2023-02-19T18:06:56.123Z,102867.06
2023-02-19T18:09:22.931Z,102858.28
2023-02-19T18:11:49.372Z,102851.94
2023-02-19T18:14:15.725Z,102850.44
2023-02-19T18:16:50.416Z,102845.31
2023-02-19T18:19:17.245Z,102843.69
2023-02-19T18:21:43.654Z,102846.13
2023-02-19T18:24:09.993Z,102837.53
2023-02-19T18:26:36.332Z,102843.03
2023-02-19T18:29:02.906Z,102830.09
2023-02-19T18:31:32.551Z,102834.19
2023-02-19T18:33:59.006Z,102830.25
2023-02-19T18:36:25.453Z,102831.03
2023-02-19T18:38:51.785Z,102837.09
2023-02-19T18:41:21.006Z,102843.38
2023-02-19T18:43:47.967Z,102836.59
2023-02-19T18:46:14.681Z,102840.63
2023-02-19T18:48:41.430Z,102843.03
2023-02-19T18:51:11.631Z,102848.72
2023-02-19T18:53:38.220Z,102845.78
2023-02-19T18:56:05.367Z,102847.81
2023-02-19T18:58:31.805Z,102844.50
2023-02-19T19:00:59.406Z,102850.97
2023-02-19T19:03:25.941Z,102846.19
2023-02-19T19:05:52.311Z,102841.81
2023-02-19T19:08:18.724Z,102844.84
2023-02-19T19:10:45.109Z,102853.22
2023-02-19T19:13:11.492Z,102848.63
2023-02-19T19:15:39.690Z,102849.75
2023-02-19T19:18:06.034Z,102850.81
2023-02-19T19:20:32.421Z,102852.69
2023-02-19T19:22:58.793Z,102855.25
2023-02-19T19:25:25.240Z,102865.22
2023-02-19T19:27:55.263Z,102869.91
2023-02-19T19:30:21.877Z,102870.47
2023-02-19T19:32:49.735Z,102876.31
2023-02-19T19:35:17.594Z,102871.38
2023-02-19T19:37:44.440Z,102866.41
2023-02-19T19:40:11.422Z,102867.34
2023-02-19T19:42:37.844Z,102863.53
2023-02-19T19:45:05.357Z,102860.06
2023-02-19T19:47:31.917Z,102869.91
2023-02-19T19:49:58.232Z,102861.97
2023-02-19T19:52:24.682Z,102870.50
2023-02-19T19:54:54.038Z,102868.84
2023-02-19T19:57:20.688Z,102858.75
2023-02-19T19:59:51.151Z,102853.81
2023-02-19T20:02:19.054Z,102850.69
2023-02-19T20:04:45.491Z,102848.38
2023-02-19T20:07:11.874Z,102846.72
2023-02-19T20:09:38.314Z,102849.75
2023-02-19T20:12:05.148Z,102857.88
2023-02-19T20:14:31.505Z,102861.75
2023-02-19T20:16:57.858Z,102856.59
2023-02-19T20:19:24.229Z,102849.00
2023-02-19T20:21:53.736Z,102850.16
2023-02-19T20:24:28.420Z,102847.03
2023-02-19T20:26:58.564Z,102842.72
2023-02-19T20:29:29.643Z,102841.06
2023-02-19T20:31:59.824Z,102842.94
2023-02-19T20:34:26.883Z,102847.59
2023-02-19T20:36:53.772Z,102848.78
2023-02-19T20:39:21.855Z,102844.81
2023-02-19T20:41:51.172Z,102856.63
2023-02-19T20:44:18.618Z,102855.13
2023-02-19T20:46:47.352Z,102844.88
2023-02-19T20:49:15.394Z,102844.22
2023-02-19T20:51:53.865Z,102844.38
2023-02-19T20:54:24.273Z,102853.53
2023-02-19T20:56:53.516Z,102853.53
2023-02-19T20:59:22.545Z,102849.22
2023-02-19T21:01:49.310Z,102840.81
2023-02-19T21:04:18.113Z,102833.03
2023-02-19T21:06:45.013Z,102827.88
2023-02-19T21:09:11.976Z,102814.78
2023-02-19T21:11:38.654Z,102815.78
2023-02-19T21:14:05.033Z,102809.00
2023-02-19T21:16:32.721Z,102794.09
2023-02-19T21:18:59.625Z,102798.75
2023-02-19T21:21:26.529Z,102799.56
2023-02-19T21:23:54.249Z,102812.81
2023-02-19T21:26:21.534Z,102804.41
2023-02-19T21:28:51.214Z,102808.72
2023-02-19T21:31:18.360Z,102804.22
2023-02-19T21:33:44.834Z,102802.59
2023-02-19T21:36:12.000Z,102800.09
2023-02-19T21:38:38.524Z,102810.72
2023-02-19T21:41:05.055Z,102815.84
2023-02-19T21:43:31.538Z,102819.50
2023-02-19T21:45:57.918Z,102826.63
2023-02-19T21:48:24.327Z,102816.00
2023-02-19T21:50:50.653Z,102816.84
2023-02-19T21:53:17.063Z,102815.00
2023-02-19T21:55:57.543Z,102804.22
2023-02-19T21:58:24.392Z,102820.13
2023-02-19T22:00:50.748Z,102822.97
2023-02-19T22:03:17.142Z,102818.50
2023-02-19T22:05:43.838Z,102810.34
2023-02-19T22:08:10.224Z,102811.81
2023-02-19T22:10:36.602Z,102803.72
2023-02-19T22:13:02.987Z,102811.47
2023-02-19T22:15:29.358Z,102814.13
2023-02-19T22:17:55.743Z,102813.94
2023-02-19T22:20:22.146Z,102810.00
2023-02-19T22:22:49.795Z,102811.47
2023-02-19T22:25:16.125Z,102812.94
2023-02-19T22:27:42.497Z,102803.16
2023-02-19T22:30:09.834Z,102799.53
2023-02-19T22:32:36.553Z,102789.91
2023-02-19T22:35:03.085Z,102793.03
2023-02-19T22:37:30.529Z,102779.75
2023-02-19T22:39:56.916Z,102782.41
2023-02-19T22:42:24.255Z,102790.00
2023-02-19T22:44:50.833Z,102786.53
2023-02-19T22:47:18.677Z,102782.22
2023-02-19T22:49:45.415Z,102780.41
2023-02-19T22:52:12.483Z,102780.56
2023-02-19T22:54:39.140Z,102774.91
2023-02-19T22:57:05.523Z,102768.59
2023-02-19T22:59:32.114Z,102766.78
2023-02-19T23:01:58.487Z,102771.91
2023-02-19T23:04:25.952Z,102763.59
2023-02-19T23:06:52.469Z,102752.78
2023-02-19T23:09:28.463Z,102754.88
2023-02-19T23:12:03.645Z,102753.72
2023-02-19T23:14:30.003Z,102750.88
2023-02-19T23:16:56.488Z,102750.88
2023-02-19T23:19:22.906Z,102748.88
2023-02-19T23:21:49.972Z,102748.69
2023-02-19T23:24:17.019Z,102746.66
2023-02-19T23:26:48.954Z,102758.09
2023-02-19T23:29:25.295Z,102751.63
2023-02-19T23:31:52.502Z,102751.44
2023-02-19T23:34:19.441Z,102761.91
2023-02-19T23:36:49.397Z,102763.34
2023-02-19T23:39:19.178Z,102763.00
2023-02-19T23:41:53.956Z,102769.59
2023-02-19T23:44:22.242Z,102764.09
2023-02-19T23:46:48.948Z,102765.56
2023-02-19T23:49:15.450Z,102756.25
2023-02-19T23:51:41.884Z,102744.59
2023-02-19T23:54:08.401Z,102735.25
2023-02-19T23:56:35.535Z,102719.94
2023-02-19T23:59:02.000Z,102719.59
